sensor_id;sensor_type;location;lat;lon;timestamp;P1;durP1;ratioP1;P2;durP2;ratioP2
6424;SDS011;12193;42.642;23.384;2023-01-24T00:01:56;5.60;;;3.77;;
6424;SDS011;12193;42.642;23.384;2023-01-24T00:04:25;7.40;;;4.20;;
6424;SDS011;12193;42.642;23.384;2023-01-24T00:06:54;7.20;;;4.03;;
6424;SDS011;12193;42.642;23.384;2023-01-24T00:09:24;6.73;;;3.90;;
6424;SDS011;12193;42.642;23.384;2023-01-24T00:11:53;10.00;;;4.77;;
6424;SDS011;12193;42.642;23.384;2023-01-24T00:14:25;6.10;;;3.87;;
6424;SDS011;12193;42.642;23.384;2023-01-24T00:16:54;8.03;;;4.27;;
6424;SDS011;12193;42.642;23.384;2023-01-24T00:19:23;7.73;;;4.53;;
6424;SDS011;12193;42.642;23.384;2023-01-24T00:21:53;9.47;;;5.13;;
6424;SDS011;12193;42.642;23.384;2023-01-24T00:24:22;9.20;;;3.93;;
6424;SDS011;12193;42.642;23.384;2023-01-24T00:26:52;9.47;;;4.50;;
6424;SDS011;12193;42.642;23.384;2023-01-24T00:29:23;9.63;;;4.43;;
6424;SDS011;12193;42.642;23.384;2023-01-24T00:31:53;9.03;;;4.80;;
6424;SDS011;12193;42.642;23.384;2023-01-24T00:34:22;7.37;;;3.77;;
6424;SDS011;12193;42.642;23.384;2023-01-24T00:36:51;10.77;;;5.00;;
6424;SDS011;12193;42.642;23.384;2023-01-24T00:39:21;8.87;;;4.80;;
6424;SDS011;12193;42.642;23.384;2023-01-24T00:41:50;8.63;;;4.53;;
6424;SDS011;12193;42.642;23.384;2023-01-24T00:44:20;9.77;;;4.03;;
6424;SDS011;12193;42.642;23.384;2023-01-24T00:46:53;6.43;;;4.03;;
6424;SDS011;12193;42.642;23.384;2023-01-24T00:49:22;7.83;;;4.40;;
6424;SDS011;12193;42.642;23.384;2023-01-24T00:51:52;7.47;;;4.27;;
6424;SDS011;12193;42.642;23.384;2023-01-24T00:54:21;7.90;;;4.33;;
6424;SDS011;12193;42.642;23.384;2023-01-24T00:56:50;5.97;;;3.70;;
6424;SDS011;12193;42.642;23.384;2023-01-24T00:59:20;7.17;;;4.13;;
6424;SDS011;12193;42.642;23.384;2023-01-24T01:01:49;7.90;;;4.40;;
6424;SDS011;12193;42.642;23.384;2023-01-24T01:04:21;6.10;;;3.30;;
6424;SDS011;12193;42.642;23.384;2023-01-24T01:06:50;7.50;;;3.43;;
6424;SDS011;12193;42.642;23.384;2023-01-24T04:08:49;8.37;;;4.33;;
6424;SDS011;12193;42.642;23.384;2023-01-24T04:11:19;5.27;;;3.23;;
6424;SDS011;12193;42.642;23.384;2023-01-24T04:13:48;5.80;;;2.93;;
6424;SDS011;12193;42.642;23.384;2023-01-24T04:16:18;5.07;;;3.17;;
6424;SDS011;12193;42.642;23.384;2023-01-24T04:18:47;6.13;;;3.80;;
6424;SDS011;12193;42.642;23.384;2023-01-24T04:21:16;5.93;;;3.00;;
6424;SDS011;12193;42.642;23.384;2023-01-24T04:23:46;6.00;;;3.50;;
6424;SDS011;12193;42.642;23.384;2023-01-24T04:26:18;4.43;;;2.67;;
6424;SDS011;12193;42.642;23.384;2023-01-24T04:28:47;4.30;;;2.80;;
6424;SDS011;12193;42.642;23.384;2023-01-24T04:31:16;15.73;;;3.43;;
6424;SDS011;12193;42.642;23.384;2023-01-24T04:33:46;4.53;;;2.60;;
6424;SDS011;12193;42.642;23.384;2023-01-24T04:36:15;4.60;;;2.67;;
6424;SDS011;12193;42.642;23.384;2023-01-24T04:38:44;5.77;;;3.40;;
6424;SDS011;12193;42.642;23.384;2023-01-24T04:41:16;7.03;;;4.43;;
6424;SDS011;12193;42.642;23.384;2023-01-24T04:43:45;6.03;;;3.63;;
6424;SDS011;12193;42.642;23.384;2023-01-24T04:46:15;8.93;;;4.30;;
6424;SDS011;12193;42.642;23.384;2023-01-24T04:48:44;7.27;;;4.43;;
6424;SDS011;12193;42.642;23.384;2023-01-24T04:51:14;4.80;;;3.20;;
6424;SDS011;12193;42.642;23.384;2023-01-24T04:53:43;9.43;;;4.40;;
6424;SDS011;12193;42.642;23.384;2023-01-24T04:56:12;8.00;;;4.43;;
6424;SDS011;12193;42.642;23.384;2023-01-24T04:58:45;10.23;;;4.40;;
6424;SDS011;12193;42.642;23.384;2023-01-24T05:01:14;6.23;;;3.30;;
6424;SDS011;12193;42.642;23.384;2023-01-24T05:03:43;7.10;;;3.70;;
6424;SDS011;12193;42.642;23.384;2023-01-24T05:06:13;7.20;;;4.20;;
6424;SDS011;12193;42.642;23.384;2023-01-24T05:08:42;3.40;;;2.33;;
6424;SDS011;12193;42.642;23.384;2023-01-24T05:11:11;6.43;;;4.20;;
6424;SDS011;12193;42.642;23.384;2023-01-24T05:13:43;7.67;;;4.40;;
6424;SDS011;12193;42.642;23.384;2023-01-24T05:16:13;6.27;;;3.63;;
6424;SDS011;12193;42.642;23.384;2023-01-24T05:18:42;7.20;;;3.90;;
6424;SDS011;12193;42.642;23.384;2023-01-24T05:21:12;6.20;;;3.67;;
6424;SDS011;12193;42.642;23.384;2023-01-24T05:23:43;9.17;;;5.30;;
6424;SDS011;12193;42.642;23.384;2023-01-24T05:26:17;7.93;;;4.90;;
6424;SDS011;12193;42.642;23.384;2023-01-24T05:28:50;6.97;;;3.93;;
6424;SDS011;12193;42.642;23.384;2023-01-24T05:31:20;9.23;;;5.43;;
6424;SDS011;12193;42.642;23.384;2023-01-24T05:33:50;9.13;;;5.33;;
6424;SDS011;12193;42.642;23.384;2023-01-24T05:36:19;9.67;;;5.53;;
6424;SDS011;12193;42.642;23.384;2023-01-24T05:38:50;8.93;;;5.63;;
6424;SDS011;12193;42.642;23.384;2023-01-24T05:41:19;10.07;;;5.43;;
6424;SDS011;12193;42.642;23.384;2023-01-24T05:43:51;7.40;;;4.33;;
6424;SDS011;12193;42.642;23.384;2023-01-24T05:46:21;3.27;;;2.13;;
6424;SDS011;12193;42.642;23.384;2023-01-24T05:48:51;8.53;;;5.10;;
6424;SDS011;12193;42.642;23.384;2023-01-24T05:51:20;7.30;;;4.20;;
6424;SDS011;12193;42.642;23.384;2023-01-24T05:53:50;7.33;;;4.67;;
6424;SDS011;12193;42.642;23.384;2023-01-24T05:56:19;8.63;;;5.20;;
6424;SDS011;12193;42.642;23.384;2023-01-24T05:58:51;9.73;;;5.43;;
6424;SDS011;12193;42.642;23.384;2023-01-24T06:01:21;12.40;;;6.77;;
6424;SDS011;12193;42.642;23.384;2023-01-24T06:03:51;9.07;;;5.80;;
6424;SDS011;12193;42.642;23.384;2023-01-24T06:06:22;7.80;;;4.67;;
6424;SDS011;12193;42.642;23.384;2023-01-24T06:08:53;9.67;;;4.93;;
6424;SDS011;12193;42.642;23.384;2023-01-24T06:11:22;7.23;;;4.30;;
6424;SDS011;12193;42.642;23.384;2023-01-24T06:13:56;5.17;;;3.20;;
6424;SDS011;12193;42.642;23.384;2023-01-24T06:16:27;3.83;;;2.43;;
6424;SDS011;12193;42.642;23.384;2023-01-24T06:18:56;4.33;;;2.47;;
6424;SDS011;12193;42.642;23.384;2023-01-24T06:21:34;11.17;;;3.20;;
6424;SDS011;12193;42.642;23.384;2023-01-24T06:24:14;9.00;;;2.03;;
6424;SDS011;12193;42.642;23.384;2023-01-24T06:26:46;4.20;;;2.60;;
6424;SDS011;12193;42.642;23.384;2023-01-24T06:29:19;3.37;;;1.97;;
6424;SDS011;12193;42.642;23.384;2023-01-24T06:31:52;5.90;;;2.50;;
6424;SDS011;12193;42.642;23.384;2023-01-24T06:34:38;3.70;;;2.50;;
6424;SDS011;12193;42.642;23.384;2023-01-24T06:37:25;10.87;;;3.80;;
6424;SDS011;12193;42.642;23.384;2023-01-24T06:40:03;5.43;;;2.07;;
6424;SDS011;12193;42.642;23.384;2023-01-24T06:42:36;5.37;;;3.00;;
6424;SDS011;12193;42.642;23.384;2023-01-24T06:45:09;7.73;;;3.53;;
6424;SDS011;12193;42.642;23.384;2023-01-24T06:47:39;5.43;;;2.57;;
6424;SDS011;12193;42.642;23.384;2023-01-24T06:50:10;4.90;;;2.90;;
6424;SDS011;12193;42.642;23.384;2023-01-24T06:52:43;4.63;;;1.93;;
6424;SDS011;12193;42.642;23.384;2023-01-24T06:55:14;5.73;;;2.47;;
6424;SDS011;12193;42.642;23.384;2023-01-24T06:57:44;5.87;;;2.63;;
6424;SDS011;12193;42.642;23.384;2023-01-24T07:00:16;5.50;;;3.40;;
6424;SDS011;12193;42.642;23.384;2023-01-24T07:02:47;1.17;;;1.07;;
6424;SDS011;12193;42.642;23.384;2023-01-24T07:05:16;4.97;;;2.73;;
6424;SDS011;12193;42.642;23.384;2023-01-24T07:07:45;6.07;;;3.23;;
6424;SDS011;12193;42.642;23.384;2023-01-24T07:10:15;5.63;;;3.30;;
6424;SDS011;12193;42.642;23.384;2023-01-24T07:12:45;8.83;;;3.50;;
6424;SDS011;12193;42.642;23.384;2023-01-24T07:15:17;5.43;;;3.03;;
6424;SDS011;12193;42.642;23.384;2023-01-24T07:17:47;6.90;;;3.90;;
6424;SDS011;12193;42.642;23.384;2023-01-24T07:20:17;6.87;;;3.27;;
6424;SDS011;12193;42.642;23.384;2023-01-24T07:22:47;7.43;;;3.47;;
6424;SDS011;12193;42.642;23.384;2023-01-24T07:25:18;6.50;;;4.00;;
6424;SDS011;12193;42.642;23.384;2023-01-24T07:27:49;7.87;;;4.23;;
6424;SDS011;12193;42.642;23.384;2023-01-24T07:30:21;4.70;;;2.60;;
6424;SDS011;12193;42.642;23.384;2023-01-24T07:32:50;5.23;;;3.00;;
6424;SDS011;12193;42.642;23.384;2023-01-24T07:35:20;8.53;;;3.57;;
6424;SDS011;12193;42.642;23.384;2023-01-24T07:37:49;4.27;;;2.97;;
6424;SDS011;12193;42.642;23.384;2023-01-24T07:40:19;4.23;;;2.23;;
6424;SDS011;12193;42.642;23.384;2023-01-24T07:42:48;3.80;;;2.03;;
6424;SDS011;12193;42.642;23.384;2023-01-24T07:45:17;3.60;;;2.27;;
6424;SDS011;12193;42.642;23.384;2023-01-24T07:47:49;4.97;;;2.97;;
6424;SDS011;12193;42.642;23.384;2023-01-24T07:50:23;4.93;;;2.80;;
6424;SDS011;12193;42.642;23.384;2023-01-24T07:52:53;6.40;;;3.83;;
6424;SDS011;12193;42.642;23.384;2023-01-24T07:55:23;9.53;;;4.03;;
6424;SDS011;12193;42.642;23.384;2023-01-24T07:57:56;4.87;;;1.77;;
6424;SDS011;12193;42.642;23.384;2023-01-24T08:00:27;4.33;;;2.93;;
6424;SDS011;12193;42.642;23.384;2023-01-24T08:03:00;4.13;;;2.40;;
6424;SDS011;12193;42.642;23.384;2023-01-24T08:05:29;4.53;;;2.80;;
6424;SDS011;12193;42.642;23.384;2023-01-24T08:07:58;4.10;;;2.20;;
6424;SDS011;12193;42.642;23.384;2023-01-24T08:10:28;4.60;;;2.10;;
6424;SDS011;12193;42.642;23.384;2023-01-24T08:12:57;2.53;;;1.67;;
6424;SDS011;12193;42.642;23.384;2023-01-24T08:15:27;3.07;;;1.83;;
6424;SDS011;12193;42.642;23.384;2023-01-24T08:17:56;4.37;;;2.00;;
6424;SDS011;12193;42.642;23.384;2023-01-24T08:20:29;3.60;;;1.77;;
6424;SDS011;12193;42.642;23.384;2023-01-24T08:22:59;4.53;;;2.20;;
6424;SDS011;12193;42.642;23.384;2023-01-24T08:25:28;4.13;;;2.77;;
6424;SDS011;12193;42.642;23.384;2023-01-24T08:27:59;4.83;;;1.73;;
6424;SDS011;12193;42.642;23.384;2023-01-24T08:30:28;4.83;;;1.90;;
6424;SDS011;12193;42.642;23.384;2023-01-24T08:33:01;4.73;;;2.13;;
6424;SDS011;12193;42.642;23.384;2023-01-24T08:35:32;5.47;;;2.73;;
6424;SDS011;12193;42.642;23.384;2023-01-24T08:38:02;4.67;;;3.00;;
6424;SDS011;12193;42.642;23.384;2023-01-24T08:40:31;2.57;;;1.77;;
6424;SDS011;12193;42.642;23.384;2023-01-24T08:43:00;6.80;;;3.33;;
6424;SDS011;12193;42.642;23.384;2023-01-24T08:45:30;7.00;;;3.17;;
6424;SDS011;12193;42.642;23.384;2023-01-24T08:48:02;5.53;;;2.63;;
6424;SDS011;12193;42.642;23.384;2023-01-24T08:50:31;6.00;;;2.87;;
6424;SDS011;12193;42.642;23.384;2023-01-24T08:53:01;4.53;;;2.33;;
6424;SDS011;12193;42.642;23.384;2023-01-24T08:55:30;4.90;;;3.00;;
6424;SDS011;12193;42.642;23.384;2023-01-24T08:58:00;9.13;;;3.07;;
6424;SDS011;12193;42.642;23.384;2023-01-24T09:00:29;6.63;;;2.93;;
6424;SDS011;12193;42.642;23.384;2023-01-24T09:03:02;4.17;;;2.67;;
6424;SDS011;12193;42.642;23.384;2023-01-24T09:05:31;5.97;;;2.57;;
6424;SDS011;12193;42.642;23.384;2023-01-24T09:08:02;5.47;;;2.80;;
6424;SDS011;12193;42.642;23.384;2023-01-24T09:10:31;4.20;;;2.77;;
6424;SDS011;12193;42.642;23.384;2023-01-24T09:13:01;5.73;;;2.80;;
6424;SDS011;12193;42.642;23.384;2023-01-24T09:15:31;6.43;;;2.10;;
6424;SDS011;12193;42.642;23.384;2023-01-24T09:18:03;5.17;;;3.07;;
6424;SDS011;12193;42.642;23.384;2023-01-24T09:20:33;2.43;;;1.50;;
6424;SDS011;12193;42.642;23.384;2023-01-24T09:23:06;5.23;;;2.13;;
6424;SDS011;12193;42.642;23.384;2023-01-24T09:25:37;5.53;;;3.30;;
6424;SDS011;12193;42.642;23.384;2023-01-24T09:28:07;4.97;;;2.50;;
6424;SDS011;12193;42.642;23.384;2023-01-24T09:30:36;7.10;;;3.60;;
6424;SDS011;12193;42.642;23.384;2023-01-24T09:33:08;5.40;;;3.43;;
6424;SDS011;12193;42.642;23.384;2023-01-24T09:35:38;5.33;;;2.47;;
6424;SDS011;12193;42.642;23.384;2023-01-24T09:38:07;5.83;;;2.93;;
6424;SDS011;12193;42.642;23.384;2023-01-24T09:40:40;5.10;;;2.33;;
6424;SDS011;12193;42.642;23.384;2023-01-24T09:43:15;6.87;;;2.83;;
6424;SDS011;12193;42.642;23.384;2023-01-24T09:46:00;5.80;;;3.23;;
6424;SDS011;12193;42.642;23.384;2023-01-24T09:48:38;6.57;;;2.00;;
6424;SDS011;12193;42.642;23.384;2023-01-24T09:51:10;1.57;;;1.30;;
6424;SDS011;12193;42.642;23.384;2023-01-24T09:53:44;5.20;;;2.73;;
6424;SDS011;12193;42.642;23.384;2023-01-24T09:56:19;8.60;;;3.27;;
6424;SDS011;12193;42.642;23.384;2023-01-24T09:58:55;2.53;;;1.77;;
6424;SDS011;12193;42.642;23.384;2023-01-24T10:01:36;4.37;;;1.90;;
6424;SDS011;12193;42.642;23.384;2023-01-24T10:07:05;3.37;;;2.13;;
6424;SDS011;12193;42.642;23.384;2023-01-24T10:10:00;2.00;;;1.80;;
6424;SDS011;12193;42.642;23.384;2023-01-24T10:12:37;1.30;;;1.20;;
6424;SDS011;12193;42.642;23.384;2023-01-24T10:15:18;1.63;;;1.30;;
6424;SDS011;12193;42.642;23.384;2023-01-24T10:18:19;0.93;;;0.83;;
6424;SDS011;12193;42.642;23.384;2023-01-24T10:24:11;2.30;;;1.47;;
6424;SDS011;12193;42.642;23.384;2023-01-24T10:26:44;2.07;;;1.43;;
6424;SDS011;12193;42.642;23.384;2023-01-24T10:29:17;1.97;;;1.50;;
6424;SDS011;12193;42.642;23.384;2023-01-24T10:31:50;1.27;;;1.17;;
6424;SDS011;12193;42.642;23.384;2023-01-24T10:34:27;2.33;;;1.27;;
6424;SDS011;12193;42.642;23.384;2023-01-24T10:37:04;2.03;;;1.30;;
6424;SDS011;12193;42.642;23.384;2023-01-24T10:39:43;2.37;;;1.50;;
6424;SDS011;12193;42.642;23.384;2023-01-24T10:42:14;2.17;;;1.53;;
6424;SDS011;12193;42.642;23.384;2023-01-24T10:44:50;6.50;;;1.97;;
6424;SDS011;12193;42.642;23.384;2023-01-24T10:50:14;4.23;;;1.70;;
6424;SDS011;12193;42.642;23.384;2023-01-24T10:52:48;3.03;;;1.97;;
6424;SDS011;12193;42.642;23.384;2023-01-24T10:55:22;2.27;;;1.50;;
6424;SDS011;12193;42.642;23.384;2023-01-24T10:58:02;2.13;;;1.60;;
6424;SDS011;12193;42.642;23.384;2023-01-24T11:00:46;2.53;;;1.27;;
6424;SDS011;12193;42.642;23.384;2023-01-24T11:03:25;2.57;;;1.40;;
6424;SDS011;12193;42.642;23.384;2023-01-24T11:05:57;1.63;;;1.00;;
6424;SDS011;12193;42.642;23.384;2023-01-24T11:08:31;2.20;;;1.27;;
6424;SDS011;12193;42.642;23.384;2023-01-24T11:11:02;2.33;;;1.20;;
6424;SDS011;12193;42.642;23.384;2023-01-24T11:13:46;5.87;;;1.70;;
6424;SDS011;12193;42.642;23.384;2023-01-24T11:16:19;3.20;;;1.83;;
6424;SDS011;12193;42.642;23.384;2023-01-24T11:18:54;2.60;;;1.60;;
6424;SDS011;12193;42.642;23.384;2023-01-24T11:21:27;1.97;;;1.60;;
6424;SDS011;12193;42.642;23.384;2023-01-24T11:24:08;1.93;;;1.27;;
6424;SDS011;12193;42.642;23.384;2023-01-24T11:26:55;1.30;;;1.20;;
6424;SDS011;12193;42.642;23.384;2023-01-24T11:29:27;1.57;;;1.20;;
6424;SDS011;12193;42.642;23.384;2023-01-24T11:31:59;1.07;;;0.87;;
6424;SDS011;12193;42.642;23.384;2023-01-24T11:34:46;2.23;;;1.53;;
6424;SDS011;12193;42.642;23.384;2023-01-24T11:40:28;2.80;;;1.23;;
6424;SDS011;12193;42.642;23.384;2023-01-24T11:43:08;3.97;;;1.17;;
6424;SDS011;12193;42.642;23.384;2023-01-24T11:45:54;2.17;;;1.40;;
6424;SDS011;12193;42.642;23.384;2023-01-24T11:48:35;2.23;;;1.63;;
6424;SDS011;12193;42.642;23.384;2023-01-24T11:51:15;3.20;;;1.70;;
6424;SDS011;12193;42.642;23.384;2023-01-24T11:54:00;1.03;;;1.00;;
6424;SDS011;12193;42.642;23.384;2023-01-24T11:56:45;1.97;;;1.10;;
6424;SDS011;12193;42.642;23.384;2023-01-24T11:59:25;4.00;;;2.03;;
6424;SDS011;12193;42.642;23.384;2023-01-24T12:02:23;2.63;;;1.97;;
6424;SDS011;12193;42.642;23.384;2023-01-24T12:05:20;4.40;;;2.43;;
6424;SDS011;12193;42.642;23.384;2023-01-24T12:08:00;1.77;;;1.43;;
6424;SDS011;12193;42.642;23.384;2023-01-24T12:10:46;1.70;;;1.40;;
6424;SDS011;12193;42.642;23.384;2023-01-24T12:13:26;2.10;;;1.40;;
6424;SDS011;12193;42.642;23.384;2023-01-24T12:16:05;3.43;;;2.17;;
6424;SDS011;12193;42.642;23.384;2023-01-24T12:18:44;3.13;;;1.63;;
6424;SDS011;12193;42.642;23.384;2023-01-24T12:21:25;2.00;;;1.47;;
6424;SDS011;12193;42.642;23.384;2023-01-24T12:23:56;4.17;;;2.20;;
6424;SDS011;12193;42.642;23.384;2023-01-24T12:26:31;3.17;;;1.13;;
6424;SDS011;12193;42.642;23.384;2023-01-24T12:29:09;2.13;;;1.70;;
6424;SDS011;12193;42.642;23.384;2023-01-24T12:31:45;1.40;;;0.83;;
6424;SDS011;12193;42.642;23.384;2023-01-24T12:34:25;3.23;;;1.20;;
6424;SDS011;12193;42.642;23.384;2023-01-24T12:37:09;2.63;;;1.70;;
6424;SDS011;12193;42.642;23.384;2023-01-24T12:39:45;2.53;;;1.50;;
6424;SDS011;12193;42.642;23.384;2023-01-24T12:42:21;2.07;;;1.50;;
6424;SDS011;12193;42.642;23.384;2023-01-24T12:45:02;3.17;;;1.83;;
6424;SDS011;12193;42.642;23.384;2023-01-24T12:47:40;3.53;;;2.10;;
6424;SDS011;12193;42.642;23.384;2023-01-24T12:50:15;1.40;;;0.80;;
6424;SDS011;12193;42.642;23.384;2023-01-24T12:52:54;2.23;;;1.43;;
6424;SDS011;12193;42.642;23.384;2023-01-24T12:55:32;3.20;;;2.00;;
6424;SDS011;12193;42.642;23.384;2023-01-24T12:58:09;1.40;;;1.30;;
6424;SDS011;12193;42.642;23.384;2023-01-24T13:00:49;1.33;;;1.10;;
6424;SDS011;12193;42.642;23.384;2023-01-24T13:03:34;3.13;;;1.50;;
6424;SDS011;12193;42.642;23.384;2023-01-24T13:06:23;3.03;;;2.03;;
6424;SDS011;12193;42.642;23.384;2023-01-24T13:09:07;3.50;;;2.27;;
6424;SDS011;12193;42.642;23.384;2023-01-24T13:11:46;2.73;;;1.80;;
6424;SDS011;12193;42.642;23.384;2023-01-24T13:14:19;8.13;;;1.93;;
6424;SDS011;12193;42.642;23.384;2023-01-24T13:17:03;2.30;;;1.77;;
6424;SDS011;12193;42.642;23.384;2023-01-24T13:23:18;2.67;;;1.27;;
6424;SDS011;12193;42.642;23.384;2023-01-24T13:26:03;4.83;;;2.43;;
6424;SDS011;12193;42.642;23.384;2023-01-24T13:28:46;3.67;;;2.10;;
6424;SDS011;12193;42.642;23.384;2023-01-24T13:31:25;2.70;;;1.87;;
6424;SDS011;12193;42.642;23.384;2023-01-24T13:34:01;1.20;;;1.10;;
6424;SDS011;12193;42.642;23.384;2023-01-24T13:36:34;3.73;;;1.80;;
6424;SDS011;12193;42.642;23.384;2023-01-24T13:39:14;2.63;;;1.90;;
6424;SDS011;12193;42.642;23.384;2023-01-24T13:42:02;3.00;;;2.23;;
6424;SDS011;12193;42.642;23.384;2023-01-24T13:44:33;3.20;;;1.90;;
6424;SDS011;12193;42.642;23.384;2023-01-24T13:47:04;3.13;;;2.10;;
6424;SDS011;12193;42.642;23.384;2023-01-24T13:52:46;2.90;;;2.20;;
6424;SDS011;12193;42.642;23.384;2023-01-24T13:58:33;4.57;;;2.60;;
6424;SDS011;12193;42.642;23.384;2023-01-24T14:01:03;2.53;;;1.50;;
6424;SDS011;12193;42.642;23.384;2023-01-24T14:03:33;2.67;;;1.93;;
6424;SDS011;12193;42.642;23.384;2023-01-24T14:06:14;1.27;;;1.10;;
6424;SDS011;12193;42.642;23.384;2023-01-24T14:08:45;3.80;;;2.30;;
6424;SDS011;12193;42.642;23.384;2023-01-24T14:11:18;2.13;;;1.57;;
6424;SDS011;12193;42.642;23.384;2023-01-24T14:14:02;2.97;;;1.80;;
6424;SDS011;12193;42.642;23.384;2023-01-24T14:19:56;5.10;;;1.90;;
6424;SDS011;12193;42.642;23.384;2023-01-24T14:22:34;4.70;;;2.80;;
6424;SDS011;12193;42.642;23.384;2023-01-24T14:25:20;2.43;;;1.70;;
6424;SDS011;12193;42.642;23.384;2023-01-24T14:27:59;2.93;;;2.13;;
6424;SDS011;12193;42.642;23.384;2023-01-24T14:30:31;3.47;;;2.00;;
6424;SDS011;12193;42.642;23.384;2023-01-24T14:33:11;3.93;;;2.27;;
6424;SDS011;12193;42.642;23.384;2023-01-24T14:35:51;4.90;;;1.87;;
6424;SDS011;12193;42.642;23.384;2023-01-24T14:38:30;2.00;;;1.70;;
6424;SDS011;12193;42.642;23.384;2023-01-24T14:40:59;2.17;;;1.50;;
6424;SDS011;12193;42.642;23.384;2023-01-24T14:43:32;2.53;;;1.80;;
6424;SDS011;12193;42.642;23.384;2023-01-24T14:46:11;5.20;;;2.60;;
6424;SDS011;12193;42.642;23.384;2023-01-24T14:48:45;2.57;;;1.60;;
6424;SDS011;12193;42.642;23.384;2023-01-24T14:51:15;1.77;;;1.53;;
6424;SDS011;12193;42.642;23.384;2023-01-24T14:53:49;2.23;;;1.33;;
6424;SDS011;12193;42.642;23.384;2023-01-24T14:56:20;4.43;;;2.23;;
6424;SDS011;12193;42.642;23.384;2023-01-24T14:58:50;1.77;;;1.57;;
6424;SDS011;12193;42.642;23.384;2023-01-24T15:01:22;1.93;;;1.10;;
6424;SDS011;12193;42.642;23.384;2023-01-24T15:03:54;1.43;;;1.10;;
6424;SDS011;12193;42.642;23.384;2023-01-24T15:06:24;2.67;;;1.87;;
6424;SDS011;12193;42.642;23.384;2023-01-24T15:08:57;3.10;;;2.10;;
6424;SDS011;12193;42.642;23.384;2023-01-24T15:11:30;1.90;;;1.50;;
6424;SDS011;12193;42.642;23.384;2023-01-24T15:14:03;3.97;;;2.60;;
6424;SDS011;12193;42.642;23.384;2023-01-24T15:16:35;3.33;;;1.90;;
6424;SDS011;12193;42.642;23.384;2023-01-24T15:19:10;6.17;;;3.67;;
6424;SDS011;12193;42.642;23.384;2023-01-24T15:21:45;5.63;;;3.03;;
6424;SDS011;12193;42.642;23.384;2023-01-24T15:24:22;6.90;;;3.77;;
6424;SDS011;12193;42.642;23.384;2023-01-24T15:26:53;6.20;;;3.03;;
6424;SDS011;12193;42.642;23.384;2023-01-24T15:32:21;1.90;;;1.20;;
6424;SDS011;12193;42.642;23.384;2023-01-24T15:38:08;3.07;;;1.67;;
6424;SDS011;12193;42.642;23.384;2023-01-24T15:40:49;4.67;;;2.57;;
6424;SDS011;12193;42.642;23.384;2023-01-24T15:43:21;6.47;;;3.40;;
6424;SDS011;12193;42.642;23.384;2023-01-24T15:46:07;5.20;;;2.70;;
6424;SDS011;12193;42.642;23.384;2023-01-24T15:48:59;3.80;;;1.83;;
6424;SDS011;12193;42.642;23.384;2023-01-24T15:51:31;3.63;;;2.20;;
6424;SDS011;12193;42.642;23.384;2023-01-24T15:54:04;2.47;;;1.80;;
6424;SDS011;12193;42.642;23.384;2023-01-24T15:56:41;7.83;;;4.33;;
6424;SDS011;12193;42.642;23.384;2023-01-24T15:59:13;3.40;;;2.33;;
6424;SDS011;12193;42.642;23.384;2023-01-24T16:01:45;5.47;;;3.13;;
6424;SDS011;12193;42.642;23.384;2023-01-24T16:04:15;4.67;;;2.87;;
6424;SDS011;12193;42.642;23.384;2023-01-24T16:06:45;5.60;;;3.73;;
6424;SDS011;12193;42.642;23.384;2023-01-24T16:09:15;7.50;;;4.17;;
6424;SDS011;12193;42.642;23.384;2023-01-24T16:11:47;9.60;;;5.43;;
6424;SDS011;12193;42.642;23.384;2023-01-24T16:14:17;7.37;;;4.50;;
6424;SDS011;12193;42.642;23.384;2023-01-24T16:16:51;6.60;;;3.87;;
6424;SDS011;12193;42.642;23.384;2023-01-24T16:19:22;8.57;;;5.13;;
6424;SDS011;12193;42.642;23.384;2023-01-24T16:21:52;9.97;;;5.67;;
6424;SDS011;12193;42.642;23.384;2023-01-24T16:24:21;10.17;;;4.90;;
6424;SDS011;12193;42.642;23.384;2023-01-24T16:26:53;7.70;;;4.53;;
6424;SDS011;12193;42.642;23.384;2023-01-24T16:29:27;8.07;;;4.20;;
6424;SDS011;12193;42.642;23.384;2023-01-24T16:31:58;8.20;;;4.10;;
6424;SDS011;12193;42.642;23.384;2023-01-24T16:34:27;9.43;;;4.87;;
6424;SDS011;12193;42.642;23.384;2023-01-24T16:36:58;9.37;;;4.57;;
6424;SDS011;12193;42.642;23.384;2023-01-24T16:39:27;8.17;;;4.83;;
6424;SDS011;12193;42.642;23.384;2023-01-24T16:41:59;3.23;;;2.33;;
6424;SDS011;12193;42.642;23.384;2023-01-24T16:44:31;7.33;;;4.07;;
6424;SDS011;12193;42.642;23.384;2023-01-24T16:47:01;9.80;;;6.00;;
6424;SDS011;12193;42.642;23.384;2023-01-24T16:49:30;11.10;;;6.00;;
6424;SDS011;12193;42.642;23.384;2023-01-24T16:52:00;9.27;;;5.23;;
6424;SDS011;12193;42.642;23.384;2023-01-24T16:54:30;8.43;;;4.30;;
6424;SDS011;12193;42.642;23.384;2023-01-24T16:57:02;8.70;;;4.77;;
6424;SDS011;12193;42.642;23.384;2023-01-24T16:59:32;11.33;;;5.40;;
6424;SDS011;12193;42.642;23.384;2023-01-24T17:02:01;8.17;;;5.30;;
6424;SDS011;12193;42.642;23.384;2023-01-24T17:04:30;10.17;;;4.90;;
6424;SDS011;12193;42.642;23.384;2023-01-24T17:06:59;9.47;;;5.00;;
6424;SDS011;12193;42.642;23.384;2023-01-24T17:09:29;13.47;;;5.87;;
6424;SDS011;12193;42.642;23.384;2023-01-24T17:11:59;5.93;;;3.57;;
6424;SDS011;12193;42.642;23.384;2023-01-24T17:14:32;7.87;;;4.37;;
6424;SDS011;12193;42.642;23.384;2023-01-24T17:17:02;10.37;;;5.40;;
6424;SDS011;12193;42.642;23.384;2023-01-24T17:19:32;13.17;;;6.17;;
6424;SDS011;12193;42.642;23.384;2023-01-24T17:22:02;6.90;;;3.47;;
6424;SDS011;12193;42.642;23.384;2023-01-24T17:24:32;5.67;;;2.70;;
6424;SDS011;12193;42.642;23.384;2023-01-24T17:27:04;6.93;;;4.13;;
6424;SDS011;12193;42.642;23.384;2023-01-24T17:29:33;5.27;;;2.67;;
6424;SDS011;12193;42.642;23.384;2023-01-24T17:32:03;3.80;;;2.60;;
6424;SDS011;12193;42.642;23.384;2023-01-24T17:34:32;6.07;;;3.30;;
6424;SDS011;12193;42.642;23.384;2023-01-24T17:37:01;5.43;;;3.63;;
6424;SDS011;12193;42.642;23.384;2023-01-24T17:39:31;7.20;;;3.50;;
6424;SDS011;12193;42.642;23.384;2023-01-24T17:42:00;5.93;;;2.87;;
6424;SDS011;12193;42.642;23.384;2023-01-24T17:44:32;7.27;;;3.57;;
6424;SDS011;12193;42.642;23.384;2023-01-24T17:47:01;7.37;;;3.90;;
6424;SDS011;12193;42.642;23.384;2023-01-24T17:49:30;5.40;;;2.63;;
6424;SDS011;12193;42.642;23.384;2023-01-24T17:52:01;7.13;;;3.17;;
6424;SDS011;12193;42.642;23.384;2023-01-24T17:54:30;2.80;;;2.20;;
6424;SDS011;12193;42.642;23.384;2023-01-24T17:56:59;3.07;;;1.77;;
6424;SDS011;12193;42.642;23.384;2023-01-24T17:59:29;2.73;;;1.70;;
6424;SDS011;12193;42.642;23.384;2023-01-24T18:02:01;4.73;;;2.37;;
6424;SDS011;12193;42.642;23.384;2023-01-24T18:04:30;3.50;;;2.57;;
6424;SDS011;12193;42.642;23.384;2023-01-24T18:06:59;3.93;;;2.70;;
6424;SDS011;12193;42.642;23.384;2023-01-24T18:09:29;2.30;;;1.63;;
6424;SDS011;12193;42.642;23.384;2023-01-24T18:11:58;5.53;;;2.80;;
6424;SDS011;12193;42.642;23.384;2023-01-24T18:14:27;3.47;;;2.30;;
6424;SDS011;12193;42.642;23.384;2023-01-24T18:17:01;2.93;;;1.97;;
6424;SDS011;12193;42.642;23.384;2023-01-24T18:19:30;4.40;;;2.67;;
6424;SDS011;12193;42.642;23.384;2023-01-24T18:22:00;5.13;;;2.03;;
6424;SDS011;12193;42.642;23.384;2023-01-24T18:24:29;5.93;;;3.20;;
6424;SDS011;12193;42.642;23.384;2023-01-24T18:26:59;4.97;;;2.83;;
6424;SDS011;12193;42.642;23.384;2023-01-24T18:29:28;4.47;;;2.87;;
6424;SDS011;12193;42.642;23.384;2023-01-24T18:31:57;7.37;;;3.77;;
6424;SDS011;12193;42.642;23.384;2023-01-24T18:34:29;6.67;;;2.47;;
6424;SDS011;12193;42.642;23.384;2023-01-24T18:36:59;5.43;;;3.50;;
6424;SDS011;12193;42.642;23.384;2023-01-24T18:39:28;5.77;;;2.87;;
6424;SDS011;12193;42.642;23.384;2023-01-24T18:41:57;6.70;;;2.63;;
6424;SDS011;12193;42.642;23.384;2023-01-24T18:44:30;3.83;;;2.33;;
6424;SDS011;12193;42.642;23.384;2023-01-24T18:46:59;4.30;;;2.20;;
6424;SDS011;12193;42.642;23.384;2023-01-24T18:49:30;5.23;;;2.50;;
6424;SDS011;12193;42.642;23.384;2023-01-24T18:52:00;5.53;;;3.23;;
6424;SDS011;12193;42.642;23.384;2023-01-24T18:54:29;5.70;;;3.03;;